sensor_id;sensor_type;location;lat;lon;timestamp;pressure;altitude;pressure_sealevel;temperature;humidity
71344;BME280;59146;43.850;25.948;2023-11-19T00:00:19;100858.31;;;6.17;78.04
71344;BME280;59146;43.850;25.948;2023-11-19T00:02:44;100935.13;;;6.67;78.10
71344;BME280;59146;43.850;25.948;2023-11-19T00:05:10;100925.69;;;6.65;77.76
71344;BME280;59146;43.850;25.948;2023-11-19T00:07:39;100862.38;;;6.24;77.04
71344;BME280;59146;43.850;25.948;2023-11-19T00:10:12;100920.97;;;6.53;77.45
71344;BME280;59146;43.850;25.948;2023-11-19T00:12:39;100892.59;;;6.25;79.30
71344;BME280;59146;43.850;25.948;2023-11-19T00:15:06;100931.41;;;6.51;79.40
71344;BME280;59146;43.850;25.948;2023-11-19T00:17:34;100929.72;;;6.50;79.30
71344;BME280;59146;43.850;25.948;2023-11-19T00:19:59;100877.75;;;6.28;79.01
71344;BME280;59146;43.850;25.948;2023-11-19T00:22:24;100911.38;;;6.31;80.54
71344;BME280;59146;43.850;25.948;2023-11-19T00:24:51;100891.47;;;6.09;81.08
71344;BME280;59146;43.850;25.948;2023-11-19T00:27:16;100887.13;;;6.09;81.85
71344;BME280;59146;43.850;25.948;2023-11-19T00:29:42;100922.78;;;6.27;81.01
71344;BME280;59146;43.850;25.948;2023-11-19T00:32:10;100875.94;;;5.83;82.32
71344;BME280;59146;43.850;25.948;2023-11-19T00:34:36;100851.78;;;5.57;82.58
71344;BME280;59146;43.850;25.948;2023-11-19T00:37:02;100858.22;;;5.71;82.68
71344;BME280;59146;43.850;25.948;2023-11-19T00:39:29;100914.13;;;6.04;82.35
71344;BME280;59146;43.850;25.948;2023-11-19T00:41:54;100871.47;;;5.88;82.52
71344;BME280;59146;43.850;25.948;2023-11-19T00:44:19;100894.78;;;6.12;83.32
71344;BME280;59146;43.850;25.948;2023-11-19T00:46:45;100931.25;;;6.32;81.99
71344;BME280;59146;43.850;25.948;2023-11-19T00:49:10;100917.75;;;6.23;84.16
71344;BME280;59146;43.850;25.948;2023-11-19T00:51:37;100847.28;;;5.62;86.67
71344;BME280;59146;43.850;25.948;2023-11-19T00:54:03;100895.56;;;6.14;86.63
71344;BME280;59146;43.850;25.948;2023-11-19T00:56:28;100854.13;;;5.90;85.79
71344;BME280;59146;43.850;25.948;2023-11-19T00:58:54;100913.47;;;6.22;84.42
71344;BME280;59146;43.850;25.948;2023-11-19T01:01:19;100858.59;;;5.86;83.37
71344;BME280;59146;43.850;25.948;2023-11-19T01:03:45;100906.81;;;6.15;83.58
71344;BME280;59146;43.850;25.948;2023-11-19T01:06:11;100906.56;;;6.21;83.75
71344;BME280;59146;43.850;25.948;2023-11-19T01:08:36;100835.59;;;5.76;84.83
71344;BME280;59146;43.850;25.948;2023-11-19T01:11:02;100868.59;;;5.95;84.76
71344;BME280;59146;43.850;25.948;2023-11-19T01:13:27;100859.31;;;5.90;85.17
71344;BME280;59146;43.850;25.948;2023-11-19T01:15:53;100806.03;;;5.56;84.71
71344;BME280;59146;43.850;25.948;2023-11-19T01:18:18;100899.13;;;6.12;84.93
71344;BME280;59146;43.850;25.948;2023-11-19T01:20:44;100918.47;;;6.26;84.67
71344;BME280;59146;43.850;25.948;2023-11-19T01:23:09;100848.16;;;5.88;83.74
71344;BME280;59146;43.850;25.948;2023-11-19T01:25:35;100917.69;;;6.24;83.94
71344;BME280;59146;43.850;25.948;2023-11-19T01:28:00;100885.19;;;5.91;84.24
71344;BME280;59146;43.850;25.948;2023-11-19T01:30:27;100941.25;;;6.18;84.02
71344;BME280;59146;43.850;25.948;2023-11-19T01:32:53;100915.28;;;5.95;83.04
71344;BME280;59146;43.850;25.948;2023-11-19T01:35:18;100906.56;;;5.98;83.27
71344;BME280;59146;43.850;25.948;2023-11-19T01:37:44;100858.81;;;5.54;82.36
71344;BME280;59146;43.850;25.948;2023-11-19T01:40:10;100879.97;;;5.67;82.37
71344;BME280;59146;43.850;25.948;2023-11-19T01:42:40;100913.88;;;5.60;83.49
71344;BME280;59146;43.850;25.948;2023-11-19T01:45:06;100921.75;;;5.57;84.39
71344;BME280;59146;43.850;25.948;2023-11-19T01:47:33;100917.75;;;5.47;85.00
71344;BME280;59146;43.850;25.948;2023-11-19T01:50:01;100842.78;;;4.92;84.54
71344;BME280;59146;43.850;25.948;2023-11-19T01:52:27;100908.03;;;5.29;84.85
71344;BME280;59146;43.850;25.948;2023-11-19T01:54:53;100921.84;;;5.28;85.07
71344;BME280;59146;43.850;25.948;2023-11-19T01:57:21;100863.19;;;5.01;84.33
71344;BME280;59146;43.850;25.948;2023-11-19T01:59:49;100925.03;;;5.36;84.35
71344;BME280;59146;43.850;25.948;2023-11-19T02:02:16;100835.53;;;4.75;84.33
71344;BME280;59146;43.850;25.948;2023-11-19T02:04:46;100912.75;;;5.17;85.27
71344;BME280;59146;43.850;25.948;2023-11-19T02:07:13;100916.97;;;5.19;85.99
71344;BME280;59146;43.850;25.948;2023-11-19T02:09:42;100910.81;;;5.23;86.14
71344;BME280;59146;43.850;25.948;2023-11-19T02:12:07;100917.31;;;5.09;86.77
71344;BME280;59146;43.850;25.948;2023-11-19T02:14:33;100901.72;;;5.10;87.08
71344;BME280;59146;43.850;25.948;2023-11-19T02:16:58;100904.03;;;5.19;87.02
71344;BME280;59146;43.850;25.948;2023-11-19T02:19:24;100856.41;;;4.97;86.77
71344;BME280;59146;43.850;25.948;2023-11-19T02:21:49;100899.25;;;5.33;86.56
71344;BME280;59146;43.850;25.948;2023-11-19T02:24:18;100913.16;;;5.57;85.84
71344;BME280;59146;43.850;25.948;2023-11-19T02:27:09;100858.00;;;5.27;85.88
71344;BME280;59146;43.850;25.948;2023-11-19T02:29:35;100895.03;;;5.55;85.45
71344;BME280;59146;43.850;25.948;2023-11-19T02:32:01;100893.28;;;5.56;85.67
71344;BME280;59146;43.850;25.948;2023-11-19T02:34:27;100827.00;;;5.24;86.10
71344;BME280;59146;43.850;25.948;2023-11-19T02:36:52;100916.56;;;5.84;86.38
71344;BME280;59146;43.850;25.948;2023-11-19T02:39:18;100849.53;;;5.48;86.11
71344;BME280;59146;43.850;25.948;2023-11-19T02:41:47;100910.25;;;5.91;85.60
71344;BME280;59146;43.850;25.948;2023-11-19T02:44:16;100917.22;;;5.89;85.49
71344;BME280;59146;43.850;25.948;2023-11-19T02:46:41;100846.59;;;5.57;85.03
71344;BME280;59146;43.850;25.948;2023-11-19T02:49:07;100838.66;;;5.37;85.63
71344;BME280;59146;43.850;25.948;2023-11-19T02:51:33;100926.72;;;5.90;85.93
71344;BME280;59146;43.850;25.948;2023-11-19T02:53:59;100913.16;;;5.82;85.84
71344;BME280;59146;43.850;25.948;2023-11-19T02:56:25;100907.25;;;5.77;85.82
71344;BME280;59146;43.850;25.948;2023-11-19T02:58:51;100909.75;;;5.80;85.90
71344;BME280;59146;43.850;25.948;2023-11-19T03:01:25;100927.44;;;5.93;85.96
71344;BME280;59146;43.850;25.948;2023-11-19T03:04:00;100903.03;;;5.74;86.81
71344;BME280;59146;43.850;25.948;2023-11-19T03:06:26;100846.16;;;5.20;87.05
71344;BME280;59146;43.850;25.948;2023-11-19T03:08:52;100852.84;;;5.27;87.68
71344;BME280;59146;43.850;25.948;2023-11-19T03:11:18;100915.25;;;5.71;86.70
71344;BME280;59146;43.850;25.948;2023-11-19T03:13:43;100870.03;;;5.54;86.29
71344;BME280;59146;43.850;25.948;2023-11-19T03:16:09;100878.91;;;5.47;86.34
71344;BME280;59146;43.850;25.948;2023-11-19T03:18:35;100884.66;;;5.55;86.68
71344;BME280;59146;43.850;25.948;2023-11-19T03:21:00;100880.25;;;5.59;86.70
71344;BME280;59146;43.850;25.948;2023-11-19T03:23:25;100898.91;;;5.69;87.09
71344;BME280;59146;43.850;25.948;2023-11-19T03:25:53;100922.72;;;5.80;86.78
71344;BME280;59146;43.850;25.948;2023-11-19T03:28:19;100859.19;;;5.43;86.19
71344;BME280;59146;43.850;25.948;2023-11-19T03:30:45;100928.78;;;5.79;85.76
71344;BME280;59146;43.850;25.948;2023-11-19T03:33:10;100922.44;;;5.62;87.27
71344;BME280;59146;43.850;25.948;2023-11-19T03:35:36;100804.03;;;4.89;87.45
71344;BME280;59146;43.850;25.948;2023-11-19T03:38:02;100708.75;;;4.22;88.04
71344;BME280;59146;43.850;25.948;2023-11-19T03:40:28;100900.91;;;5.34;88.78
71344;BME280;59146;43.850;25.948;2023-11-19T03:42:56;100934.91;;;5.51;88.74
71344;BME280;59146;43.850;25.948;2023-11-19T03:45:21;100904.44;;;5.33;89.05
71344;BME280;59146;43.850;25.948;2023-11-19T03:47:46;100939.34;;;5.48;89.12
71344;BME280;59146;43.850;25.948;2023-11-19T03:50:12;100912.28;;;5.30;89.31
71344;BME280;59146;43.850;25.948;2023-11-19T03:52:38;100900.53;;;5.20;89.06
71344;BME280;59146;43.850;25.948;2023-11-19T03:55:03;100977.66;;;5.64;88.73
71344;BME280;59146;43.850;25.948;2023-11-19T03:57:30;100942.03;;;5.45;89.49
71344;BME280;59146;43.850;25.948;2023-11-19T03:59:56;100973.78;;;5.51;89.86
71344;BME280;59146;43.850;25.948;2023-11-19T04:02:23;100943.28;;;5.33;90.65
71344;BME280;59146;43.850;25.948;2023-11-19T04:04:53;100966.91;;;5.50;90.83
71344;BME280;59146;43.850;25.948;2023-11-19T04:07:18;100936.50;;;5.29;90.78
71344;BME280;59146;43.850;25.948;2023-11-19T04:09:44;100970.31;;;5.51;89.32
71344;BME280;59146;43.850;25.948;2023-11-19T04:12:09;100949.31;;;5.34;88.97
71344;BME280;59146;43.850;25.948;2023-11-19T04:14:36;100989.47;;;5.47;88.95
71344;BME280;59146;43.850;25.948;2023-11-19T04:17:01;100927.44;;;5.16;88.85
71344;BME280;59146;43.850;25.948;2023-11-19T04:19:27;100998.88;;;5.49;89.07
71344;BME280;59146;43.850;25.948;2023-11-19T04:21:53;100980.94;;;5.43;88.90
71344;BME280;59146;43.850;25.948;2023-11-19T04:24:18;100780.19;;;4.26;88.27
71344;BME280;59146;43.850;25.948;2023-11-19T04:26:45;101000.69;;;5.47;88.00
71344;BME280;59146;43.850;25.948;2023-11-19T04:29:16;100937.78;;;5.16;88.89
71344;BME280;59146;43.850;25.948;2023-11-19T04:31:45;101032.09;;;5.64;88.82
71344;BME280;59146;43.850;25.948;2023-11-19T04:34:11;100914.06;;;5.02;88.55
71344;BME280;59146;43.850;25.948;2023-11-19T04:36:37;101004.22;;;5.71;87.95
71344;BME280;59146;43.850;25.948;2023-11-19T04:39:03;100990.72;;;5.61;86.97
71344;BME280;59146;43.850;25.948;2023-11-19T04:41:35;100995.94;;;5.60;86.68
71344;BME280;59146;43.850;25.948;2023-11-19T04:44:00;100962.81;;;5.43;86.79
71344;BME280;59146;43.850;25.948;2023-11-19T04:46:26;100946.53;;;5.40;86.69
71344;BME280;59146;43.850;25.948;2023-11-19T04:48:51;101027.97;;;5.85;86.03
71344;BME280;59146;43.850;25.948;2023-11-19T04:51:16;101035.63;;;5.90;85.92
71344;BME280;59146;43.850;25.948;2023-11-19T04:53:42;100954.03;;;5.47;86.41
71344;BME280;59146;43.850;25.948;2023-11-19T04:56:11;100894.22;;;5.03;85.37
71344;BME280;59146;43.850;25.948;2023-11-19T04:58:37;100987.53;;;5.53;85.80
71344;BME280;59146;43.850;25.948;2023-11-19T05:01:03;101033.25;;;5.82;86.07
71344;BME280;59146;43.850;25.948;2023-11-19T05:03:30;100984.00;;;5.56;86.19
71344;BME280;59146;43.850;25.948;2023-11-19T05:05:56;101063.88;;;5.97;86.42
71344;BME280;59146;43.850;25.948;2023-11-19T05:08:22;100880.38;;;4.76;86.58
71344;BME280;59146;43.850;25.948;2023-11-19T05:10:47;101023.06;;;5.76;86.55
71344;BME280;59146;43.850;25.948;2023-11-19T05:13:12;101027.16;;;5.83;85.49
71344;BME280;59146;43.850;25.948;2023-11-19T05:15:38;100972.09;;;5.50;85.05
71344;BME280;59146;43.850;25.948;2023-11-19T05:18:03;101054.16;;;6.04;85.75
71344;BME280;59146;43.850;25.948;2023-11-19T05:20:30;100996.59;;;5.67;85.74
71344;BME280;59146;43.850;25.948;2023-11-19T05:22:55;101063.94;;;5.96;86.16
71344;BME280;59146;43.850;25.948;2023-11-19T05:25:20;101011.28;;;5.68;85.76
71344;BME280;59146;43.850;25.948;2023-11-19T05:27:46;101016.28;;;5.72;85.99
71344;BME280;59146;43.850;25.948;2023-11-19T05:30:11;101083.19;;;6.15;85.06
71344;BME280;59146;43.850;25.948;2023-11-19T05:32:37;100991.50;;;5.63;84.44
71344;BME280;59146;43.850;25.948;2023-11-19T05:35:03;101027.09;;;5.86;84.79
71344;BME280;59146;43.850;25.948;2023-11-19T05:37:28;101070.91;;;6.20;83.97
71344;BME280;59146;43.850;25.948;2023-11-19T05:39:54;101100.78;;;6.31;83.58
71344;BME280;59146;43.850;25.948;2023-11-19T05:42:19;101021.19;;;5.81;83.74
71344;BME280;59146;43.850;25.948;2023-11-19T05:44:45;101105.13;;;6.31;83.94
71344;BME280;59146;43.850;25.948;2023-11-19T05:47:10;101094.16;;;5.97;85.44
71344;BME280;59146;43.850;25.948;2023-11-19T05:49:36;101029.22;;;5.74;85.12
71344;BME280;59146;43.850;25.948;2023-11-19T05:52:02;101034.22;;;5.78;84.77
71344;BME280;59146;43.850;25.948;2023-11-19T05:54:28;101090.25;;;6.10;85.24
71344;BME280;59146;43.850;25.948;2023-11-19T05:56:54;101095.56;;;6.07;85.90
71344;BME280;59146;43.850;25.948;2023-11-19T05:59:20;100998.47;;;5.61;85.71
71344;BME280;59146;43.850;25.948;2023-11-19T06:01:48;101079.00;;;6.11;85.19
71344;BME280;59146;43.850;25.948;2023-11-19T06:04:13;101034.06;;;5.83;84.81
71344;BME280;59146;43.850;25.948;2023-11-19T06:06:39;101040.06;;;5.86;85.19
71344;BME280;59146;43.850;25.948;2023-11-19T06:09:05;101082.28;;;6.16;84.30
71344;BME280;59146;43.850;25.948;2023-11-19T06:11:33;101032.31;;;5.85;85.74
71344;BME280;59146;43.850;25.948;2023-11-19T06:13:59;101077.34;;;6.08;85.61
71344;BME280;59146;43.850;25.948;2023-11-19T06:16:24;101070.22;;;6.15;85.45
71344;BME280;59146;43.850;25.948;2023-11-19T06:18:50;101025.94;;;5.95;85.97
71344;BME280;59146;43.850;25.948;2023-11-19T06:21:15;101006.69;;;5.76;86.23
71344;BME280;59146;43.850;25.948;2023-11-19T06:23:41;101077.50;;;6.30;84.35
71344;BME280;59146;43.850;25.948;2023-11-19T06:26:07;101020.50;;;6.02;84.28
71344;BME280;59146;43.850;25.948;2023-11-19T06:28:34;101082.91;;;6.49;83.45
71344;BME280;59146;43.850;25.948;2023-11-19T06:30:59;101102.91;;;6.70;83.60
71344;BME280;59146;43.850;25.948;2023-11-19T06:33:25;101081.16;;;6.49;83.59
71344;BME280;59146;43.850;25.948;2023-11-19T06:35:50;101062.75;;;6.30;83.87
71344;BME280;59146;43.850;25.948;2023-11-19T06:38:15;101094.84;;;6.77;82.29
71344;BME280;59146;43.850;25.948;2023-11-19T06:40:41;101088.31;;;6.90;81.76
71344;BME280;59146;43.850;25.948;2023-11-19T06:43:06;100993.69;;;6.26;81.81
71344;BME280;59146;43.850;25.948;2023-11-19T06:45:34;101043.81;;;6.53;82.45
71344;BME280;59146;43.850;25.948;2023-11-19T06:48:05;101091.16;;;7.07;81.33
71344;BME280;59146;43.850;25.948;2023-11-19T06:50:31;101053.47;;;6.96;80.82
71344;BME280;59146;43.850;25.948;2023-11-19T06:52:57;101098.94;;;7.07;81.03
71344;BME280;59146;43.850;25.948;2023-11-19T06:55:22;101121.41;;;7.08;81.53
71344;BME280;59146;43.850;25.948;2023-11-19T06:57:48;101118.31;;;7.22;81.23
71344;BME280;59146;43.850;25.948;2023-11-19T07:00:13;101073.03;;;6.83;80.84
71344;BME280;59146;43.850;25.948;2023-11-19T07:02:39;101114.75;;;7.01;81.80
71344;BME280;59146;43.850;25.948;2023-11-19T07:05:05;101104.50;;;6.74;81.80
71344;BME280;59146;43.850;25.948;2023-11-19T07:07:31;101139.03;;;6.76;82.17
71344;BME280;59146;43.850;25.948;2023-11-19T07:09:58;101069.31;;;6.16;81.44
71344;BME280;59146;43.850;25.948;2023-11-19T07:12:23;101058.75;;;5.96;80.86
71344;BME280;59146;43.850;25.948;2023-11-19T07:14:52;101113.59;;;6.36;80.70
71344;BME280;59146;43.850;25.948;2023-11-19T07:17:17;101138.03;;;6.29;80.67
71344;BME280;59146;43.850;25.948;2023-11-19T07:19:42;101115.28;;;5.85;82.19
71344;BME280;59146;43.850;25.948;2023-11-19T07:22:08;101150.13;;;5.75;82.15
71344;BME280;59146;43.850;25.948;2023-11-19T07:24:33;101154.50;;;5.73;82.94
71344;BME280;59146;43.850;25.948;2023-11-19T07:26:59;101102.78;;;5.40;83.08
71344;BME280;59146;43.850;25.948;2023-11-19T07:29:24;101136.56;;;5.67;83.00
71344;BME280;59146;43.850;25.948;2023-11-19T07:31:49;101067.78;;;5.56;82.23
71344;BME280;59146;43.850;25.948;2023-11-19T07:34:16;101122.34;;;5.80;83.45
71344;BME280;59146;43.850;25.948;2023-11-19T07:36:41;101157.59;;;6.13;82.59
71344;BME280;59146;43.850;25.948;2023-11-19T07:39:07;101191.31;;;6.39;80.68
71344;BME280;59146;43.850;25.948;2023-11-19T07:41:34;101161.72;;;6.20;80.35
71344;BME280;59146;43.850;25.948;2023-11-19T07:44:00;101084.34;;;5.51;80.50
71344;BME280;59146;43.850;25.948;2023-11-19T07:46:26;101143.53;;;5.64;81.05
71344;BME280;59146;43.850;25.948;2023-11-19T07:48:52;101102.34;;;5.26;82.18
71344;BME280;59146;43.850;25.948;2023-11-19T07:51:18;101189.63;;;5.83;83.12
71344;BME280;59146;43.850;25.948;2023-11-19T07:53:43;101152.47;;;5.84;82.18
71344;BME280;59146;43.850;25.948;2023-11-19T07:56:09;101193.13;;;5.82;82.32
71344;BME280;59146;43.850;25.948;2023-11-19T07:58:34;101129.91;;;5.29;81.14
71344;BME280;59146;43.850;25.948;2023-11-19T08:01:03;101139.91;;;5.41;81.79
71344;BME280;59146;43.850;25.948;2023-11-19T08:03:28;101209.53;;;5.82;82.01
71344;BME280;59146;43.850;25.948;2023-11-19T08:05:57;101162.84;;;5.54;83.00
71344;BME280;59146;43.850;25.948;2023-11-19T08:08:23;101187.84;;;5.86;82.79
71344;BME280;59146;43.850;25.948;2023-11-19T08:10:48;101104.72;;;5.63;81.90
71344;BME280;59146;43.850;25.948;2023-11-19T08:13:14;101122.63;;;5.98;81.20
71344;BME280;59146;43.850;25.948;2023-11-19T08:15:39;101165.78;;;6.27;81.08
71344;BME280;59146;43.850;25.948;2023-11-19T08:18:06;101176.56;;;6.41;80.95
71344;BME280;59146;43.850;25.948;2023-11-19T08:20:32;101111.91;;;6.09;78.76
71344;BME280;59146;43.850;25.948;2023-11-19T08:22:58;101166.38;;;6.09;78.84
71344;BME280;59146;43.850;25.948;2023-11-19T08:25:23;101172.97;;;6.19;79.10
71344;BME280;59146;43.850;25.948;2023-11-19T08:27:49;101167.97;;;6.39;78.91
71344;BME280;59146;43.850;25.948;2023-11-19T08:30:14;101099.81;;;5.82;78.91
71344;BME280;59146;43.850;25.948;2023-11-19T08:32:39;101098.28;;;6.02;78.93
71344;BME280;59146;43.850;25.948;2023-11-19T08:35:05;101158.88;;;6.52;78.48
71344;BME280;59146;43.850;25.948;2023-11-19T08:37:30;101163.34;;;6.49;78.70
71344;BME280;59146;43.850;25.948;2023-11-19T08:39:56;101162.28;;;6.54;78.98
71344;BME280;59146;43.850;25.948;2023-11-19T08:42:21;101197.91;;;6.75;79.22
71344;BME280;59146;43.850;25.948;2023-11-19T08:44:50;101172.16;;;6.69;77.96
71344;BME280;59146;43.850;25.948;2023-11-19T08:47:18;101116.69;;;6.21;79.25
71344;BME280;59146;43.850;25.948;2023-11-19T08:49:44;101117.56;;;6.46;78.48
71344;BME280;59146;43.850;25.948;2023-11-19T08:52:10;101094.53;;;6.37;78.63
71344;BME280;59146;43.850;25.948;2023-11-19T08:54:36;101183.88;;;7.05;78.31
71344;BME280;59146;43.850;25.948;2023-11-19T08:57:02;101106.53;;;6.66;77.89
71344;BME280;59146;43.850;25.948;2023-11-19T08:59:29;101180.13;;;7.12;76.55
71344;BME280;59146;43.850;25.948;2023-11-19T09:01:54;101178.47;;;7.35;76.30
71344;BME280;59146;43.850;25.948;2023-11-19T09:04:20;100928.44;;;6.14;75.47
71344;BME280;59146;43.850;25.948;2023-11-19T09:06:48;101176.44;;;7.43;75.87
71344;BME280;59146;43.850;25.948;2023-11-19T09:09:13;101111.00;;;7.08;75.51
71344;BME280;59146;43.850;25.948;2023-11-19T09:11:39;101106.56;;;6.89;76.56
71344;BME280;59146;43.850;25.948;2023-11-19T09:14:04;101113.91;;;7.24;76.58
71344;BME280;59146;43.850;25.948;2023-11-19T09:16:30;101161.31;;;7.75;75.45
71344;BME280;59146;43.850;25.948;2023-11-19T09:18:55;101077.28;;;7.30;74.50
71344;BME280;59146;43.850;25.948;2023-11-19T09:21:21;101130.53;;;7.65;74.76
71344;BME280;59146;43.850;25.948;2023-11-19T09:23:46;101065.25;;;7.28;74.48
71344;BME280;59146;43.850;25.948;2023-11-19T09:26:13;101071.69;;;7.41;75.12
71344;BME280;59146;43.850;25.948;2023-11-19T09:28:38;101149.19;;;7.97;75.60
71344;BME280;59146;43.850;25.948;2023-11-19T09:31:13;101092.13;;;7.71;73.62
71344;BME280;59146;43.850;25.948;2023-11-19T09:33:39;101078.41;;;7.68;72.64
71344;BME280;59146;43.850;25.948;2023-11-19T09:36:04;101097.59;;;7.87;72.68
71344;BME280;59146;43.850;25.948;2023-11-19T09:38:30;101126.78;;;8.15;72.76
71344;BME280;59146;43.850;25.948;2023-11-19T09:40:55;101125.53;;;8.03;73.22
71344;BME280;59146;43.850;25.948;2023-11-19T09:43:22;101090.28;;;7.75;72.76
71344;BME280;59146;43.850;25.948;2023-11-19T09:45:49;101078.88;;;7.77;72.88
71344;BME280;59146;43.850;25.948;2023-11-19T09:48:19;101105.44;;;8.07;72.53
71344;BME280;59146;43.850;25.948;2023-11-19T09:50:48;101094.47;;;8.21;70.97
71344;BME280;59146;43.850;25.948;2023-11-19T09:53:15;101048.09;;;7.88;70.70
71344;BME280;59146;43.850;25.948;2023-11-19T09:55:45;100942.72;;;7.16;71.25
71344;BME280;59146;43.850;25.948;2023-11-19T09:58:12;101125.75;;;8.41;70.24
71344;BME280;59146;43.850;25.948;2023-11-19T10:00:39;101101.97;;;8.07;68.01
71344;BME280;59146;43.850;25.948;2023-11-19T10:03:07;101024.13;;;7.39;68.62
71344;BME280;59146;43.850;25.948;2023-11-19T10:05:34;101078.81;;;8.00;69.80
71344;BME280;59146;43.850;25.948;2023-11-19T10:08:01;101094.41;;;8.22;69.89
71344;BME280;59146;43.850;25.948;2023-11-19T10:10:28;101127.38;;;8.63;69.78
71344;BME280;59146;43.850;25.948;2023-11-19T10:12:54;101014.63;;;7.81;70.56
71344;BME280;59146;43.850;25.948;2023-11-19T10:15:22;101060.13;;;7.91;70.78
71344;BME280;59146;43.850;25.948;2023-11-19T10:17:50;101035.28;;;7.84;70.85
71344;BME280;59146;43.850;25.948;2023-11-19T10:20:15;101089.19;;;8.22;70.87
71344;BME280;59146;43.850;25.948;2023-11-19T10:22:41;101095.16;;;8.46;71.58
71344;BME280;59146;43.850;25.948;2023-11-19T10:25:26;101047.38;;;8.47;69.26
71344;BME280;59146;43.850;25.948;2023-11-19T10:27:52;101079.94;;;8.75;69.48
71344;BME280;59146;43.850;25.948;2023-11-19T10:30:23;101095.84;;;8.69;69.61
71344;BME280;59146;43.850;25.948;2023-11-19T10:33:08;101108.88;;;8.69;68.76
71344;BME280;59146;43.850;25.948;2023-11-19T10:35:35;101092.00;;;8.78;68.09
71344;BME280;59146;43.850;25.948;2023-11-19T10:38:16;101076.56;;;8.73;67.81
71344;BME280;59146;43.850;25.948;2023-11-19T10:40:41;101062.69;;;8.93;69.04
71344;BME280;59146;43.850;25.948;2023-11-19T10:43:07;101080.72;;;9.16;67.47
71344;BME280;59146;43.850;25.948;2023-11-19T10:45:33;101071.81;;;8.83;65.96
71344;BME280;59146;43.850;25.948;2023-11-19T10:47:59;101106.97;;;8.93;65.79
71344;BME280;59146;43.850;25.948;2023-11-19T10:50:25;100987.84;;;8.39;67.54
71344;BME280;59146;43.850;25.948;2023-11-19T10:52:56;101035.13;;;8.69;67.97
71344;BME280;59146;43.850;25.948;2023-11-19T10:55:27;101064.31;;;8.96;66.21
71344;BME280;59146;43.850;25.948;2023-11-19T10:57:58;101075.78;;;9.10;65.25
71344;BME280;59146;43.850;25.948;2023-11-19T11:00:24;101085.28;;;9.11;66.03
71344;BME280;59146;43.850;25.948;2023-11-19T11:02:54;101041.84;;;9.12;65.58
71344;BME280;59146;43.850;25.948;2023-11-19T11:05:22;100919.06;;;8.25;64.33
71344;BME280;59146;43.850;25.948;2023-11-19T11:07:49;101028.31;;;8.85;63.39
71344;BME280;59146;43.850;25.948;2023-11-19T11:10:16;101075.72;;;9.12;64.42
71344;BME280;59146;43.850;25.948;2023-11-19T11:12:43;101072.13;;;9.33;63.24
71344;BME280;59146;43.850;25.948;2023-11-19T11:15:11;101061.00;;;9.11;62.63
71344;BME280;59146;43.850;25.948;2023-11-19T11:17:39;101049.25;;;9.02;64.90
71344;BME280;59146;43.850;25.948;2023-11-19T11:20:05;100891.72;;;8.35;64.32
71344;BME280;59146;43.850;25.948;2023-11-19T11:22:50;100968.59;;;8.99;62.72
71344;BME280;59146;43.850;25.948;2023-11-19T11:25:45;101050.13;;;9.57;64.16
71344;BME280;59146;43.850;25.948;2023-11-19T11:28:35;101068.41;;;9.57;65.01
71344;BME280;59146;43.850;25.948;2023-11-19T11:36:13;100983.44;;;9.16;64.19
71344;BME280;59146;43.850;25.948;2023-11-19T11:38:43;100966.06;;;8.98;62.28
71344;BME280;59146;43.850;25.948;2023-11-19T11:41:23;101029.00;;;9.26;62.08
71344;BME280;59146;43.850;25.948;2023-11-19T11:43:50;101047.47;;;9.40;63.59
71344;BME280;59146;43.850;25.948;2023-11-19T11:49:03;100998.50;;;9.09;64.82
71344;BME280;59146;43.850;25.948;2023-11-19T11:54:10;100980.06;;;9.14;66.26
71344;BME280;59146;43.850;25.948;2023-11-19T11:56:39;100981.13;;;9.10;65.50
71344;BME280;59146;43.850;25.948;2023-11-19T11:59:08;100981.59;;;9.18;63.84
71344;BME280;59146;43.850;25.948;2023-11-19T12:01:35;101031.28;;;9.15;64.59
71344;BME280;59146;43.850;25.948;2023-11-19T12:04:00;101046.19;;;9.11;64.71
71344;BME280;59146;43.850;25.948;2023-11-19T12:06:27;101057.16;;;9.19;66.50
71344;BME280;59146;43.850;25.948;2023-11-19T12:08:52;100986.06;;;8.78;65.59
71344;BME280;59146;43.850;25.948;2023-11-19T12:11:19;100984.22;;;8.62;65.74
71344;BME280;59146;43.850;25.948;2023-11-19T12:13:55;100985.09;;;8.81;64.23
71344;BME280;59146;43.850;25.948;2023-11-19T12:16:27;101008.13;;;9.09;65.50
71344;BME280;59146;43.850;25.948;2023-11-19T12:18:54;101026.19;;;9.12;65.00
71344;BME280;59146;43.850;25.948;2023-11-19T12:21:30;101022.81;;;9.10;65.54
71344;BME280;59146;43.850;25.948;2023-11-19T12:24:02;101027.47;;;9.22;64.38
71344;BME280;59146;43.850;25.948;2023-11-19T12:26:32;101039.22;;;9.30;63.61
71344;BME280;59146;43.850;25.948;2023-11-19T12:28:59;100980.16;;;8.75;64.52
71344;BME280;59146;43.850;25.948;2023-11-19T12:31:25;101027.13;;;8.92;64.96
71344;BME280;59146;43.850;25.948;2023-11-19T12:33:51;101036.53;;;9.13;66.31
71344;BME280;59146;43.850;25.948;2023-11-19T12:36:17;100981.34;;;8.87;64.92
71344;BME280;59146;43.850;25.948;2023-11-19T12:38:43;100984.03;;;8.85;64.04
71344;BME280;59146;43.850;25.948;2023-11-19T12:41:10;101024.38;;;8.95;64.57
71344;BME280;59146;43.850;25.948;2023-11-19T12:43:37;100982.31;;;8.84;65.55
71344;BME280;59146;43.850;25.948;2023-11-19T12:46:23;101016.16;;;9.04;65.36
71344;BME280;59146;43.850;25.948;2023-11-19T12:48:49;101064.59;;;9.27;65.94
71344;BME280;59146;43.850;25.948;2023-11-19T12:51:15;100971.13;;;8.82;66.03
71344;BME280;59146;43.850;25.948;2023-11-19T12:53:51;100967.63;;;8.64;65.92
71344;BME280;59146;43.850;25.948;2023-11-19T12:56:19;101031.41;;;8.74;66.81
71344;BME280;59146;43.850;25.948;2023-11-19T12:58:45;101035.16;;;8.67;67.10